Time;durP1;ratioP1;P1;durP2;ratioP2;P2;SDS_P1;SDS_P2;PMS_P1;PMS_P2;Temp;Humidity;BMP_temperature;BMP_pressure;BME280_temperature;BME280_humidity;BME280_pressure;Samples;Min_cycle;Max_cycle;Signal;HPM_P1;HPM_P2
2022/07/22 00:04:31;;;;;;;10.38;9.77;;;;;;;;;;10424836;28;20238;-73
2022/07/22 00:09:33;;;;;;;9.88;9.15;;;;;;;;;;10437514;28;20200;-73
2022/07/22 00:14:34;;;;;;;11.05;10.25;;;;;;;;;;10433408;28;20277;-74
2022/07/22 00:19:35;;;;;;;10.70;9.93;;;;;;;;;;10433977;28;20190;-73
2022/07/22 00:24:36;;;;;;;10.02;9.32;;;;;;;;;;10429951;28;20837;-75
2022/07/22 00:29:37;;;;;;;10.45;9.75;;;;;;;;;;10446776;28;20864;-73
2022/07/22 00:34:38;;;;;;;10.25;9.55;;;;;;;;;;10438707;28;20218;-74
2022/07/22 00:39:39;;;;;;;10.90;10.00;;;;;;;;;;10436685;28;20205;-73
2022/07/22 00:44:41;;;;;;;9.82;9.15;;;;;;;;;;10433675;28;20191;-74
2022/07/22 00:49:42;;;;;;;10.60;9.68;;;;;;;;;;10439085;28;20211;-74
2022/07/22 00:54:43;;;;;;;11.27;10.40;;;;;;;;;;10431904;28;20616;-74
2022/07/22 00:59:44;;;;;;;10.93;10.23;;;;;;;;;;10433572;28;20229;-73
2022/07/22 01:04:46;;;;;;;11.13;10.32;;;;;;;;;;10445042;28;20219;-73
2022/07/22 01:09:48;;;;;;;10.88;10.18;;;;;;;;;;10436784;28;20167;-74
2022/07/22 01:14:49;;;;;;;11.95;11.02;;;;;;;;;;10445144;28;20206;-74
2022/07/22 01:19:50;;;;;;;12.77;11.73;;;;;;;;;;10445089;28;20925;-74
2022/07/22 01:24:52;;;;;;;12.82;11.63;;;;;;;;;;10440764;28;20179;-74
2022/07/22 01:29:53;;;;;;;12.35;11.45;;;;;;;;;;10436698;28;20175;-74
2022/07/22 01:34:54;;;;;;;11.63;10.43;;;;;;;;;;10435165;28;20695;-74
2022/07/22 01:39:55;;;;;;;12.82;11.88;;;;;;;;;;10434072;28;20194;-74
2022/07/22 01:44:56;;;;;;;12.55;11.48;;;;;;;;;;10440628;28;20187;-72
2022/07/22 01:49:57;;;;;;;13.27;12.18;;;;;;;;;;10436722;28;20230;-73
2022/07/22 01:54:58;;;;;;;13.23;12.27;;;;;;;;;;10440683;28;20289;-74
2022/07/22 01:59:59;;;;;;;13.02;12.02;;;;;;;;;;10439153;28;20175;-73
2022/07/22 02:05:01;;;;;;;13.95;12.70;;;;;;;;;;10434830;28;20214;-73
2022/07/22 02:10:03;;;;;;;15.02;13.60;;;;;;;;;;10437187;28;20757;-74
2022/07/22 02:15:05;;;;;;;13.82;12.70;;;;;;;;;;10436227;28;20253;-73
2022/07/22 02:20:06;;;;;;;14.55;13.18;;;;;;;;;;10430184;28;20202;-74
2022/07/22 02:25:08;;;;;;;13.82;12.68;;;;;;;;;;10435824;28;20187;-74
2022/07/22 02:30:09;;;;;;;13.13;12.05;;;;;;;;;;10444803;28;20218;-74
2022/07/22 02:35:10;;;;;;;11.82;10.93;;;;;;;;;;10417018;28;20250;-74
2022/07/22 02:40:11;;;;;;;12.65;11.65;;;;;;;;;;10440126;28;20197;-74
2022/07/22 02:45:13;;;;;;;13.70;12.38;;;;;;;;;;10443407;28;20218;-74
2022/07/22 02:50:14;;;;;;;12.70;11.80;;;;;;;;;;10439089;28;20597;-73
2022/07/22 02:55:16;;;;;;;11.90;10.90;;;;;;;;;;10433409;28;20209;-74
2022/07/22 03:00:17;;;;;;;12.77;11.75;;;;;;;;;;10433588;28;20179;-74
2022/07/22 03:05:20;;;;;;;12.98;11.82;;;;;;;;;;10438957;28;20707;-74
2022/07/22 03:10:27;;;;;;;12.70;11.52;;;;;;;;;;10440098;28;20767;-74
2022/07/22 03:15:28;;;;;;;14.20;13.02;;;;;;;;;;10435008;28;20755;-74
2022/07/22 03:20:30;;;;;;;12.80;11.60;;;;;;;;;;10439494;28;20248;-74
2022/07/22 03:25:32;;;;;;;13.07;11.90;;;;;;;;;;10441159;28;20183;-74
2022/07/22 03:30:33;;;;;;;12.55;11.38;;;;;;;;;;10437854;28;20352;-74
2022/07/22 03:35:35;;;;;;;12.18;11.38;;;;;;;;;;10436764;28;20245;-74
2022/07/22 03:40:36;;;;;;;11.98;11.10;;;;;;;;;;10438526;28;20183;-74
2022/07/22 03:45:38;;;;;;;14.18;13.07;;;;;;;;;;10438291;28;20224;-75
2022/07/22 03:50:41;;;;;;;13.85;12.65;;;;;;;;;;10445248;28;20202;-73
2022/07/22 03:55:42;;;;;;;12.45;11.35;;;;;;;;;;10432912;28;20236;-74
2022/07/22 04:00:43;;;;;;;12.57;11.50;;;;;;;;;;10431607;28;20702;-75
2022/07/22 04:05:45;;;;;;;12.52;11.65;;;;;;;;;;10404238;28;20240;-74
2022/07/22 04:10:47;;;;;;;12.07;11.18;;;;;;;;;;10457567;28;20236;-73
2022/07/22 04:15:48;;;;;;;11.65;10.75;;;;;;;;;;10452759;28;20289;-74
2022/07/22 04:20:50;;;;;;;11.40;10.60;;;;;;;;;;10439362;28;20674;-74
2022/07/22 04:25:56;;;;;;;11.32;10.35;;;;;;;;;;10445446;28;20655;-75
2022/07/22 04:30:58;;;;;;;11.27;10.27;;;;;;;;;;10445373;28;20596;-75
2022/07/22 04:35:59;;;;;;;11.63;10.57;;;;;;;;;;10452793;28;20904;-74
2022/07/22 04:41:00;;;;;;;10.40;9.65;;;;;;;;;;10452171;28;20642;-74
2022/07/22 04:46:03;;;;;;;9.90;9.18;;;;;;;;;;10440136;28;20182;-74
2022/07/22 04:51:07;;;;;;;10.48;9.73;;;;;;;;;;10441997;28;20199;-74
2022/07/22 04:56:09;;;;;;;9.52;8.93;;;;;;;;;;10444223;28;20285;-73
2022/07/22 05:01:11;;;;;;;8.45;7.75;;;;;;;;;;10437155;28;20211;-74
2022/07/22 05:06:13;;;;;;;6.40;6.05;;;;;;;;;;10443066;28;20544;-75
2022/07/22 05:11:18;;;;;;;6.20;5.97;;;;;;;;;;10442850;28;20187;-73
2022/07/22 05:16:19;;;;;;;6.07;5.88;;;;;;;;;;10442779;28;20798;-74
2022/07/22 05:21:21;;;;;;;5.95;5.55;;;;;;;;;;10429161;28;20198;-74
2022/07/22 05:26:24;;;;;;;5.20;5.10;;;;;;;;;;10451197;28;20194;-74
2022/07/22 05:31:25;;;;;;;5.15;4.95;;;;;;;;;;10429732;28;20279;-74
2022/07/22 05:36:26;;;;;;;5.38;5.00;;;;;;;;;;10437943;28;20207;-74
2022/07/22 05:41:30;;;;;;;6.47;6.15;;;;;;;;;;10435152;28;20206;-76
2022/07/22 05:46:31;;;;;;;6.38;6.18;;;;;;;;;;10444324;28;20229;-73
2022/07/22 05:51:34;;;;;;;5.75;5.40;;;;;;;;;;10434054;28;20624;-72
2022/07/22 05:56:35;;;;;;;5.28;5.00;;;;;;;;;;10444765;28;20289;-73
2022/07/22 06:01:36;;;;;;;5.75;5.40;;;;;;;;;;10422201;28;20199;-72
2022/07/22 06:06:50;;;;;;;5.32;5.15;;;;;;;;;;10462048;28;20186;-72
2022/07/22 06:11:51;;;;;;;4.80;4.70;;;;;;;;;;10422710;28;20179;-73
2022/07/22 06:16:53;;;;;;;4.95;4.68;;;;;;;;;;10443930;28;20215;-74
2022/07/22 06:21:54;;;;;;;4.97;4.88;;;;;;;;;;10437829;28;20765;-74
2022/07/22 06:26:55;;;;;;;4.32;4.22;;;;;;;;;;10434474;28;20933;-74
2022/07/22 06:31:56;;;;;;;5.35;5.05;;;;;;;;;;10447055;28;20689;-74
2022/07/22 06:36:57;;;;;;;4.45;4.25;;;;;;;;;;10452272;28;20753;-75
2022/07/22 06:41:59;;;;;;;4.45;4.35;;;;;;;;;;10449177;28;20211;-77
2022/07/22 06:47:18;;;;;;;4.10;4.00;;;;;;;;;;10442067;28;20210;-75
2022/07/22 06:52:19;;;;;;;3.40;3.40;;;;;;;;;;10438497;28;20175;-76
2022/07/22 06:57:20;;;;;;;2.83;2.83;;;;;;;;;;10440914;28;20669;-76
2022/07/22 07:02:22;;;;;;;6.50;2.70;;;;;;;;;;10441927;28;20211;-78
2022/07/22 07:07:23;;;;;;;2.95;2.85;;;;;;;;;;10440083;28;20214;-80
2022/07/22 07:12:29;;;;;;;2.03;2.03;;;;;;;;;;10436730;28;20183;-79
2022/07/22 07:17:50;;;;;;;2.45;2.45;;;;;;;;;;10429646;28;20237;-79
2022/07/22 07:22:51;;;;;;;3.40;3.30;;;;;;;;;;10437320;28;20667;-80
2022/07/22 07:27:52;;;;;;;2.45;2.35;;;;;;;;;;10444984;28;20234;-76
2022/07/22 07:32:55;;;;;;;3.40;3.30;;;;;;;;;;10422349;28;20994;-80
2022/07/22 07:37:56;;;;;;;4.72;4.53;;;;;;;;;;10445029;28;20206;-78
2022/07/22 07:42:58;;;;;;;4.25;4.05;;;;;;;;;;10442460;28;20934;-79
2022/07/22 07:48:00;;;;;;;3.90;3.55;;;;;;;;;;10451680;28;20293;-80
2022/07/22 07:53:03;;;;;;;3.05;2.88;;;;;;;;;;10436183;28;20186;-80
2022/07/22 07:58:04;;;;;;;2.30;2.30;;;;;;;;;;10422091;28;20198;-80
2022/07/22 08:03:05;;;;;;;3.25;2.90;;;;;;;;;;10441578;28;20218;-80
2022/07/22 08:08:07;;;;;;;2.00;2.00;;;;;;;;;;10445301;28;20194;-79
2022/07/22 08:13:08;;;;;;;2.45;2.45;;;;;;;;;;10450886;28;20194;-79
2022/07/22 08:18:17;;;;;;;3.40;3.20;;;;;;;;;;10446790;28;20202;-78
2022/07/22 08:23:21;;;;;;;3.03;3.03;;;;;;;;;;10438236;28;20178;-79
2022/07/22 08:28:22;;;;;;;3.55;3.47;;;;;;;;;;10436520;28;20531;-79
2022/07/22 08:33:23;;;;;;;3.25;3.03;;;;;;;;;;10450703;28;20590;-79
2022/07/22 08:38:24;;;;;;;3.88;3.78;;;;;;;;;;10438090;28;20205;-80
2022/07/22 08:43:26;;;;;;;3.72;3.63;;;;;;;;;;10442138;28;20180;-80
2022/07/22 08:48:27;;;;;;;3.20;3.10;;;;;;;;;;10413973;28;20224;-70
2022/07/22 08:53:40;;;;;;;3.15;3.15;;;;;;;;;;10444471;28;20175;-70
2022/07/22 08:58:46;;;;;;;2.78;2.78;;;;;;;;;;10420913;28;20218;-71
2022/07/22 09:03:55;;;;;;;2.55;2.45;;;;;;;;;;10430493;28;20566;-67
2022/07/22 09:09:00;;;;;;;2.80;2.15;;;;;;;;;;10432325;28;20581;-77
2022/07/22 09:14:43;;;;;;;2.40;2.40;;;;;;;;;;10420363;28;20810;-77
2022/07/22 09:20:05;;;;;;;3.53;2.42;;;;;;;;;;10439767;28;20211;-74
2022/07/22 09:25:20;;;;;;;2.95;2.95;;;;;;;;;;10442417;28;20195;-74
2022/07/22 09:30:41;;;;;;;3.10;2.80;;;;;;;;;;10434244;28;20238;-72
2022/07/22 09:35:44;;;;;;;3.03;3.03;;;;;;;;;;10438517;28;20203;-74
2022/07/22 09:40:47;;;;;;;3.97;3.88;;;;;;;;;;10441436;28;20167;-77
2022/07/22 09:45:49;;;;;;;5.28;4.68;;;;;;;;;;10456148;28;20178;-78
2022/07/22 09:50:51;;;;;;;4.40;4.22;;;;;;;;;;10430706;28;20307;-75
2022/07/22 09:56:15;;;;;;;3.70;3.60;;;;;;;;;;10443040;28;20211;-72
2022/07/22 10:01:18;;;;;;;3.13;3.13;;;;;;;;;;10432037;28;20383;-74
2022/07/22 10:06:19;;;;;;;3.95;3.38;;;;;;;;;;10434234;28;20187;-79
2022/07/22 10:11:20;;;;;;;3.95;3.78;;;;;;;;;;10451408;28;21049;-76
2022/07/22 10:16:21;;;;;;;4.50;4.32;;;;;;;;;;10451522;28;20232;-78
2022/07/22 10:21:33;;;;;;;3.50;3.50;;;;;;;;;;10458502;28;21216;-76
2022/07/22 10:26:48;;;;;;;3.00;3.00;;;;;;;;;;10430243;28;20186;-75
2022/07/22 10:31:49;;;;;;;3.17;3.08;;;;;;;;;;10447844;28;20225;-76
2022/07/22 10:36:50;;;;;;;3.25;3.05;;;;;;;;;;10447027;28;20206;-68
2022/07/22 10:41:52;;;;;;;3.92;3.70;;;;;;;;;;10452093;28;20210;-74
2022/07/22 10:46:54;;;;;;;3.53;3.28;;;;;;;;;;10450566;28;20183;-75
2022/07/22 10:52:08;;;;;;;3.05;2.97;;;;;;;;;;10436181;28;20171;-75
2022/07/22 10:57:09;;;;;;;3.10;2.88;;;;;;;;;;10443218;28;20305;-71
2022/07/22 11:02:12;;;;;;;3.97;3.67;;;;;;;;;;10443307;28;20203;-72
2022/07/22 11:07:13;;;;;;;3.65;3.58;;;;;;;;;;10449479;28;20191;-75
2022/07/22 11:12:14;;;;;;;3.53;3.42;;;;;;;;;;10435435;28;20171;-73
2022/07/22 11:17:15;;;;;;;3.72;3.60;;;;;;;;;;10440720;28;20206;-77
2022/07/22 11:22:17;;;;;;;4.03;3.83;;;;;;;;;;10444229;28;20274;-76
2022/07/22 11:27:21;;;;;;;4.22;4.13;;;;;;;;;;10443192;28;20190;-77
2022/07/22 11:32:23;;;;;;;4.10;4.10;;;;;;;;;;10420923;28;20313;-76
2022/07/22 11:37:25;;;;;;;4.30;4.20;;;;;;;;;;10432097;28;20214;-76
2022/07/22 11:42:26;;;;;;;3.70;3.60;;;;;;;;;;10439793;28;20179;-76
2022/07/22 11:47:28;;;;;;;4.13;4.13;;;;;;;;;;10436355;28;20211;-76
2022/07/22 11:52:29;;;;;;;3.75;3.75;;;;;;;;;;10437455;28;20278;-76
2022/07/22 11:57:30;;;;;;;4.28;4.13;;;;;;;;;;10435917;28;20210;-75
2022/07/22 12:02:31;;;;;;;4.53;4.47;;;;;;;;;;10441495;28;20222;-77
2022/07/22 12:07:32;;;;;;;4.63;4.47;;;;;;;;;;10430078;28;20274;-74
2022/07/22 12:12:42;;;;;;;4.70;4.43;;;;;;;;;;10437012;28;20708;-77
2022/07/22 12:17:43;;;;;;;3.92;3.83;;;;;;;;;;10446328;28;20214;-76
2022/07/22 12:22:46;;;;;;;4.38;4.28;;;;;;;;;;10429179;28;20197;-78
2022/07/22 12:28:00;;;;;;;4.25;3.95;;;;;;;;;;10436597;28;20567;-80
2022/07/22 12:33:01;;;;;;;3.88;3.67;;;;;;;;;;10438532;28;20758;-73
2022/07/22 12:38:06;;;;;;;3.58;3.30;;;;;;;;;;10438035;28;20227;-72
2022/07/22 12:43:09;;;;;;;3.45;3.25;;;;;;;;;;10428128;28;20982;-74
2022/07/22 12:48:10;;;;;;;4.15;3.67;;;;;;;;;;10438639;28;20238;-78
2022/07/22 12:53:12;;;;;;;3.10;3.00;;;;;;;;;;10443509;28;20637;-74
2022/07/22 12:58:14;;;;;;;3.03;3.03;;;;;;;;;;10431147;28;21096;-77
2022/07/22 13:03:18;;;;;;;3.08;2.92;;;;;;;;;;10452129;28;20333;-77
2022/07/22 13:08:19;;;;;;;3.15;3.08;;;;;;;;;;10457058;28;20189;-77
2022/07/22 13:13:24;;;;;;;2.60;2.45;;;;;;;;;;10454904;28;20270;-78
2022/07/22 13:18:25;;;;;;;3.20;3.00;;;;;;;;;;10451134;28;20215;-78
2022/07/22 13:23:26;;;;;;;3.63;3.40;;;;;;;;;;10447248;28;20638;-76
2022/07/22 13:28:27;;;;;;;4.15;3.90;;;;;;;;;;10465449;28;20222;-77
2022/07/22 13:33:28;;;;;;;4.85;4.22;;;;;;;;;;10454354;28;20227;-74
2022/07/22 13:38:30;;;;;;;4.45;4.28;;;;;;;;;;10454815;28;20584;-77
2022/07/22 13:43:31;;;;;;;3.20;3.20;;;;;;;;;;10454894;28;20179;-77
2022/07/22 13:48:32;;;;;;;3.30;3.20;;;;;;;;;;10454472;28;20198;-75
2022/07/22 13:53:34;;;;;;;3.47;3.20;;;;;;;;;;10454420;28;20179;-76
2022/07/22 13:58:35;;;;;;;2.95;2.75;;;;;;;;;;10454925;28;20214;-77
2022/07/22 14:03:36;;;;;;;4.10;3.30;;;;;;;;;;10452241;28;20206;-75
2022/07/22 14:08:37;;;;;;;3.45;3.33;;;;;;;;;;10446665;28;20186;-75
2022/07/22 14:13:38;;;;;;;3.60;3.40;;;;;;;;;;10444784;28;20171;-77
2022/07/22 14:18:39;;;;;;;2.97;2.88;;;;;;;;;;10445877;28;20842;-75
2022/07/22 14:23:40;;;;;;;3.50;3.30;;;;;;;;;;10448047;28;20187;-73
2022/07/22 14:28:42;;;;;;;4.05;3.40;;;;;;;;;;10452663;28;20270;-73
2022/07/22 14:33:43;;;;;;;3.70;3.38;;;;;;;;;;10450949;28;20234;-76
2022/07/22 14:38:44;;;;;;;3.85;3.60;;;;;;;;;;10454661;28;20207;-76
2022/07/22 14:43:45;;;;;;;3.95;3.60;;;;;;;;;;10462283;28;20647;-76
2022/07/22 14:48:48;;;;;;;6.10;3.75;;;;;;;;;;10449359;28;20203;-75
2022/07/22 14:53:50;;;;;;;3.63;3.53;;;;;;;;;;10446822;28;20340;-75
2022/07/22 14:58:51;;;;;;;4.03;3.83;;;;;;;;;;10448554;28;20256;-75
2022/07/22 15:03:52;;;;;;;3.97;3.13;;;;;;;;;;10448197;28;20221;-77
2022/07/22 15:08:53;;;;;;;4.13;3.30;;;;;;;;;;10444527;28;20182;-77
2022/07/22 15:13:54;;;;;;;2.90;2.85;;;;;;;;;;10455164;28;20188;-75
2022/07/22 15:18:55;;;;;;;3.20;2.80;;;;;;;;;;10443993;28;20206;-74
2022/07/22 15:23:56;;;;;;;3.55;3.25;;;;;;;;;;10453139;28;20190;-76
2022/07/22 15:28:57;;;;;;;2.90;2.80;;;;;;;;;;10451693;28;20548;-77
2022/07/22 15:33:58;;;;;;;2.67;2.67;;;;;;;;;;10456205;28;20793;-76
2022/07/22 15:39:00;;;;;;;3.35;3.17;;;;;;;;;;10451681;28;20728;-76
2022/07/22 15:44:01;;;;;;;3.22;2.85;;;;;;;;;;10444199;28;20175;-76
2022/07/22 15:49:02;;;;;;;3.88;2.65;;;;;;;;;;10442313;28;20195;-77
2022/07/22 15:54:03;;;;;;;3.15;2.97;;;;;;;;;;10439765;28;20210;-77
2022/07/22 16:04:24;;;;;;;4.95;3.38;;;;;;;;;;10447567;28;20214;-73
2022/07/22 16:09:25;;;;;;;3.72;3.42;;;;;;;;;;10430474;28;20233;-73
2022/07/22 16:14:27;;;;;;;3.22;3.08;;;;;;;;;;10443033;28;20214;-72
2022/07/22 16:19:29;;;;;;;3.28;3.05;;;;;;;;;;10440642;28;20238;-74
2022/07/22 16:24:30;;;;;;;2.97;2.85;;;;;;;;;;10442124;28;20186;-74
2022/07/22 16:29:31;;;;;;;2.70;2.60;;;;;;;;;;10444253;28;20189;-76
2022/07/22 16:34:32;;;;;;;3.10;2.95;;;;;;;;;;10443831;28;20242;-77
2022/07/22 16:39:33;;;;;;;3.35;2.33;;;;;;;;;;10422667;28;20511;-74
2022/07/22 16:44:34;;;;;;;2.72;2.63;;;;;;;;;;10443673;28;20171;-76
2022/07/22 16:49:36;;;;;;;2.30;2.13;;;;;;;;;;10438379;28;20249;-76
2022/07/22 16:54:37;;;;;;;2.55;2.35;;;;;;;;;;10438901;28;20179;-73
2022/07/22 16:59:38;;;;;;;9.10;2.63;;;;;;;;;;10435153;28;20183;-72
2022/07/22 17:04:39;;;;;;;2.90;2.03;;;;;;;;;;10441559;28;20218;-77
2022/07/22 17:09:40;;;;;;;3.63;2.70;;;;;;;;;;10429629;28;20198;-72
2022/07/22 17:14:41;;;;;;;5.15;3.35;;;;;;;;;;10427416;28;20191;-72
2022/07/22 17:19:42;;;;;;;3.33;2.53;;;;;;;;;;10439944;28;20203;-72
2022/07/22 17:24:43;;;;;;;3.08;2.45;;;;;;;;;;10438216;28;20269;-77
2022/07/22 17:29:44;;;;;;;3.10;2.90;;;;;;;;;;10444597;28;20198;-77
2022/07/22 17:34:47;;;;;;;4.93;3.10;;;;;;;;;;10452863;28;20302;-76
2022/07/22 17:39:48;;;;;;;2.47;2.38;;;;;;;;;;10453512;28;20178;-77
2022/07/22 17:44:49;;;;;;;3.50;3.30;;;;;;;;;;10455519;28;20182;-78
2022/07/22 17:49:50;;;;;;;8.20;3.17;;;;;;;;;;10449125;28;20194;-77
2022/07/22 17:54:51;;;;;;;4.03;3.38;;;;;;;;;;10462394;28;20674;-77
2022/07/22 17:59:52;;;;;;;3.58;3.33;;;;;;;;;;10459246;28;20666;-77
2022/07/22 18:04:53;;;;;;;4.90;4.35;;;;;;;;;;10458345;28;20314;-76
2022/07/22 18:09:55;;;;;;;3.85;3.63;;;;;;;;;;10455739;28;20179;-77
2022/07/22 18:14:56;;;;;;;3.50;3.20;;;;;;;;;;10457588;28;20202;-78
2022/07/22 18:19:57;;;;;;;3.35;3.25;;;;;;;;;;10457280;28;20612;-76
2022/07/22 18:24:58;;;;;;;3.15;2.85;;;;;;;;;;10454279;28;20178;-76
2022/07/22 18:29:59;;;;;;;3.65;3.30;;;;;;;;;;10448859;28;20182;-75
2022/07/22 18:35:00;;;;;;;4.72;3.67;;;;;;;;;;10446035;28;20262;-76
2022/07/22 18:40:01;;;;;;;6.97;3.72;;;;;;;;;;10442061;28;20187;-74
2022/07/22 18:45:02;;;;;;;5.95;3.28;;;;;;;;;;10456672;28;20183;-73
2022/07/22 18:50:04;;;;;;;3.00;2.90;;;;;;;;;;10455816;28;20195;-72
2022/07/22 18:55:05;;;;;;;3.53;3.15;;;;;;;;;;10451860;28;20211;-73
2022/07/22 19:00:06;;;;;;;3.72;3.45;;;;;;;;;;10451691;28;20174;-72
2022/07/22 19:05:08;;;;;;;3.88;3.60;;;;;;;;;;10454817;28;20832;-78
2022/07/22 19:10:09;;;;;;;3.97;3.65;;;;;;;;;;10461003;28;20184;-76
2022/07/22 19:15:10;;;;;;;3.65;3.45;;;;;;;;;;10450893;28;20284;-73
2022/07/22 19:20:11;;;;;;;4.90;3.75;;;;;;;;;;10442040;28;20700;-74
2022/07/22 19:25:12;;;;;;;4.43;3.80;;;;;;;;;;10450005;28;20263;-74
2022/07/22 19:30:13;;;;;;;3.88;3.67;;;;;;;;;;10452606;28;20574;-75
2022/07/22 19:35:14;;;;;;;4.28;3.97;;;;;;;;;;10447251;28;20202;-74
2022/07/22 19:40:16;;;;;;;4.35;4.15;;;;;;;;;;10451158;28;20187;-72
2022/07/22 19:45:17;;;;;;;6.55;4.32;;;;;;;;;;10443300;28;20182;-75
2022/07/22 19:50:18;;;;;;;4.18;3.97;;;;;;;;;;10444601;28;20304;-73
2022/07/22 19:55:19;;;;;;;4.95;4.50;;;;;;;;;;10443101;28;20206;-77
2022/07/22 20:00:20;;;;;;;4.68;4.40;;;;;;;;;;10457052;28;20207;-74
2022/07/22 20:05:21;;;;;;;6.30;4.70;;;;;;;;;;10448941;28;21082;-77
2022/07/22 20:10:22;;;;;;;5.20;4.80;;;;;;;;;;10442109;28;20186;-71
2022/07/22 20:15:23;;;;;;;5.88;5.40;;;;;;;;;;10437993;28;20225;-74
2022/07/22 20:20:24;;;;;;;5.70;5.28;;;;;;;;;;10434864;28;20273;-74
2022/07/22 20:25:25;;;;;;;7.65;5.60;;;;;;;;;;10443523;28;20194;-73
2022/07/22 20:30:26;;;;;;;5.95;5.40;;;;;;;;;;10443133;28;20313;-72
2022/07/22 20:35:27;;;;;;;7.75;5.15;;;;;;;;;;10444124;28;20221;-73
2022/07/22 20:40:29;;;;;;;5.82;5.00;;;;;;;;;;10444595;28;20187;-73
2022/07/22 20:45:31;;;;;;;5.95;5.50;;;;;;;;;;10439746;28;20192;-73
2022/07/22 20:50:32;;;;;;;7.05;4.80;;;;;;;;;;10447850;28;20203;-73
2022/07/22 20:55:33;;;;;;;5.07;4.72;;;;;;;;;;10446534;28;20234;-72
2022/07/22 21:00:34;;;;;;;5.50;5.07;;;;;;;;;;10437796;28;20770;-73
2022/07/22 21:05:35;;;;;;;5.75;5.35;;;;;;;;;;10440809;28;20194;-72
2022/07/22 21:10:36;;;;;;;9.13;6.05;;;;;;;;;;10454178;28;20183;-73
2022/07/22 21:15:37;;;;;;;7.63;5.85;;;;;;;;;;10456480;28;20292;-73
2022/07/22 21:20:38;;;;;;;6.40;5.88;;;;;;;;;;10449618;28;20292;-73
2022/07/22 21:25:39;;;;;;;5.93;5.28;;;;;;;;;;10453986;28;20179;-73
2022/07/22 21:30:41;;;;;;;7.13;6.05;;;;;;;;;;10455406;28;20234;-74
2022/07/22 21:35:42;;;;;;;7.18;5.43;;;;;;;;;;10452295;28;20226;-73
2022/07/22 21:40:43;;;;;;;8.60;6.03;;;;;;;;;;10446613;28;20175;-73
2022/07/22 21:45:48;;;;;;;10.45;6.30;;;;;;;;;;10450500;28;20186;-73
2022/07/22 21:50:49;;;;;;;8.13;7.07;;;;;;;;;;10450028;28;20222;-73
2022/07/22 22:01:10;;;;;;;7.40;6.70;;;;;;;;;;10452203;28;20214;-73
2022/07/22 22:06:11;;;;;;;7.40;6.90;;;;;;;;;;10453684;28;20185;-72
2022/07/22 22:11:12;;;;;;;8.60;6.55;;;;;;;;;;10451080;28;20194;-72
2022/07/22 22:16:13;;;;;;;6.97;6.10;;;;;;;;;;10454171;28;20221;-74
2022/07/22 22:21:14;;;;;;;7.57;6.88;;;;;;;;;;10448636;28;20569;-74
2022/07/22 22:26:15;;;;;;;7.38;6.75;;;;;;;;;;10454264;28;20210;-74
2022/07/22 22:31:16;;;;;;;7.18;6.68;;;;;;;;;;10450904;28;20226;-73
2022/07/22 22:36:18;;;;;;;7.60;6.90;;;;;;;;;;10455206;28;20206;-73
2022/07/22 22:41:19;;;;;;;7.85;7.13;;;;;;;;;;10449510;28;20209;-74
2022/07/22 22:46:20;;;;;;;8.32;7.63;;;;;;;;;;10466144;28;20209;-71
2022/07/22 22:51:21;;;;;;;9.02;8.23;;;;;;;;;;10450697;28;21005;-72
2022/07/22 22:56:22;;;;;;;9.35;8.43;;;;;;;;;;10456191;28;20573;-73
2022/07/22 23:01:24;;;;;;;9.02;8.13;;;;;;;;;;10451245;28;20225;-73
2022/07/22 23:06:25;;;;;;;9.18;8.32;;;;;;;;;;10456177;28;20189;-72
2022/07/22 23:11:26;;;;;;;8.68;7.93;;;;;;;;;;10451436;28;20270;-72
2022/07/22 23:16:28;;;;;;;8.57;7.88;;;;;;;;;;10449039;28;20238;-74
2022/07/22 23:21:29;;;;;;;7.85;7.20;;;;;;;;;;10437931;28;20210;-73
2022/07/22 23:26:30;;;;;;;9.05;8.18;;;;;;;;;;10449941;28;20237;-74
2022/07/22 23:31:31;;;;;;;8.23;7.55;;;;;;;;;;10436439;28;20243;-73
2022/07/22 23:36:32;;;;;;;7.03;6.45;;;;;;;;;;10444011;28;20205;-74
2022/07/22 23:41:33;;;;;;;7.80;7.15;;;;;;;;;;10448130;28;20993;-73
2022/07/22 23:46:34;;;;;;;10.18;6.93;;;;;;;;;;10446292;28;20229;-73
2022/07/22 23:51:36;;;;;;;7.30;6.60;;;;;;;;;;10447155;28;20226;-73
2022/07/22 23:56:37;;;;;;;7.10;6.43;;;;;;;;;;10431020;28;20206;-73
